sensor_id;sensor_type;location;lat;lon;timestamp;pressure;altitude;pressure_sealevel;temperature;humidity
13029;BME280;6581;42.662;23.402;2023-02-28T00:01:39;95774.81;;;6.71;100.00
13029;BME280;6581;42.662;23.402;2023-02-28T00:04:35;95796.91;;;6.78;100.00
13029;BME280;6581;42.662;23.402;2023-02-28T00:07:09;95777.53;;;6.83;100.00
13029;BME280;6581;42.662;23.402;2023-02-28T00:09:48;95774.31;;;6.77;100.00
13029;BME280;6581;42.662;23.402;2023-02-28T00:12:49;95790.28;;;6.93;100.00
13029;BME280;6581;42.662;23.402;2023-02-28T00:15:41;95780.97;;;6.75;100.00
13029;BME280;6581;42.662;23.402;2023-02-28T00:18:27;95800.44;;;6.82;100.00
13029;BME280;6581;42.662;23.402;2023-02-28T00:21:05;95787.47;;;6.77;100.00
13029;BME280;6581;42.662;23.402;2023-02-28T00:23:46;95806.22;;;6.76;100.00
13029;BME280;6581;42.662;23.402;2023-02-28T00:26:19;95801.06;;;6.79;100.00
13029;BME280;6581;42.662;23.402;2023-02-28T00:29:13;95815.78;;;6.80;100.00
13029;BME280;6581;42.662;23.402;2023-02-28T00:31:46;95805.56;;;6.79;100.00
13029;BME280;6581;42.662;23.402;2023-02-28T00:34:20;95786.38;;;6.78;100.00
13029;BME280;6581;42.662;23.402;2023-02-28T00:36:55;95805.72;;;6.82;100.00
13029;BME280;6581;42.662;23.402;2023-02-28T00:39:32;95813.94;;;6.81;100.00
13029;BME280;6581;42.662;23.402;2023-02-28T00:42:12;95811.59;;;6.79;100.00
13029;BME280;6581;42.662;23.402;2023-02-28T00:44:48;95790.09;;;6.77;100.00
13029;BME280;6581;42.662;23.402;2023-02-28T00:50:43;95793.56;;;6.69;100.00
13029;BME280;6581;42.662;23.402;2023-02-28T00:53:25;95778.75;;;6.56;100.00
13029;BME280;6581;42.662;23.402;2023-02-28T00:56:12;95779.22;;;6.58;100.00
13029;BME280;6581;42.662;23.402;2023-02-28T00:59:04;95782.41;;;6.43;100.00
13029;BME280;6581;42.662;23.402;2023-02-28T01:01:36;95799.75;;;6.44;100.00
13029;BME280;6581;42.662;23.402;2023-02-28T01:04:15;95796.22;;;6.40;100.00
13029;BME280;6581;42.662;23.402;2023-02-28T01:07:05;95792.56;;;6.23;100.00
13029;BME280;6581;42.662;23.402;2023-02-28T01:09:57;95784.88;;;6.18;100.00
13029;BME280;6581;42.662;23.402;2023-02-28T01:12:38;95805.97;;;6.39;100.00
13029;BME280;6581;42.662;23.402;2023-02-28T01:15:21;95793.75;;;6.35;100.00
13029;BME280;6581;42.662;23.402;2023-02-28T01:18:00;95785.13;;;6.26;100.00
13029;BME280;6581;42.662;23.402;2023-02-28T01:20:57;95788.19;;;6.36;100.00
13029;BME280;6581;42.662;23.402;2023-02-28T01:23:42;95790.66;;;6.33;100.00
13029;BME280;6581;42.662;23.402;2023-02-28T01:26:22;95773.06;;;6.24;100.00
13029;BME280;6581;42.662;23.402;2023-02-28T01:29:11;95766.72;;;6.26;100.00
13029;BME280;6581;42.662;23.402;2023-02-28T01:31:57;95779.91;;;6.46;100.00
13029;BME280;6581;42.662;23.402;2023-02-28T01:34:31;95782.09;;;6.44;100.00
13029;BME280;6581;42.662;23.402;2023-02-28T01:37:21;95793.41;;;6.45;100.00
13029;BME280;6581;42.662;23.402;2023-02-28T01:40:20;95767.78;;;6.24;100.00
13029;BME280;6581;42.662;23.402;2023-02-28T01:42:53;95784.97;;;6.31;100.00
13029;BME280;6581;42.662;23.402;2023-02-28T01:45:30;95778.91;;;6.30;100.00
13029;BME280;6581;42.662;23.402;2023-02-28T01:48:28;95778.91;;;6.30;100.00
13029;BME280;6581;42.662;23.402;2023-02-28T01:51:28;95792.66;;;6.36;100.00
13029;BME280;6581;42.662;23.402;2023-02-28T01:54:11;95792.53;;;6.32;100.00
13029;BME280;6581;42.662;23.402;2023-02-28T01:56:53;95789.78;;;6.20;100.00
13029;BME280;6581;42.662;23.402;2023-02-28T01:59:34;95798.72;;;6.36;100.00
13029;BME280;6581;42.662;23.402;2023-02-28T02:02:16;95785.38;;;6.33;100.00
13029;BME280;6581;42.662;23.402;2023-02-28T02:04:53;95772.78;;;6.17;100.00
13029;BME280;6581;42.662;23.402;2023-02-28T02:07:30;95783.75;;;6.19;100.00
13029;BME280;6581;42.662;23.402;2023-02-28T02:10:19;95783.78;;;6.11;100.00
13029;BME280;6581;42.662;23.402;2023-02-28T02:13:14;95800.31;;;6.20;100.00
13029;BME280;6581;42.662;23.402;2023-02-28T02:16:11;95796.13;;;6.28;100.00
13029;BME280;6581;42.662;23.402;2023-02-28T02:22:54;95788.50;;;6.35;100.00
13029;BME280;6581;42.662;23.402;2023-02-28T02:25:42;95794.41;;;6.32;100.00
13029;BME280;6581;42.662;23.402;2023-02-28T02:28:40;95766.59;;;6.22;100.00
13029;BME280;6581;42.662;23.402;2023-02-28T02:31:38;95787.28;;;6.23;100.00
13029;BME280;6581;42.662;23.402;2023-02-28T02:34:46;95766.75;;;6.17;100.00
13029;BME280;6581;42.662;23.402;2023-02-28T02:37:30;95790.66;;;6.33;100.00
13029;BME280;6581;42.662;23.402;2023-02-28T02:40:22;95779.59;;;6.18;100.00
13029;BME280;6581;42.662;23.402;2023-02-28T02:43:01;95787.81;;;6.17;100.00
13029;BME280;6581;42.662;23.402;2023-02-28T02:45:45;95808.56;;;6.10;100.00
13029;BME280;6581;42.662;23.402;2023-02-28T02:48:36;95805.19;;;6.01;100.00
13029;BME280;6581;42.662;23.402;2023-02-28T02:51:21;95808.56;;;6.10;100.00
13029;BME280;6581;42.662;23.402;2023-02-28T02:54:03;95810.44;;;6.01;100.00
13029;BME280;6581;42.662;23.402;2023-02-28T02:56:39;95798.97;;;6.05;100.00
13029;BME280;6581;42.662;23.402;2023-02-28T02:59:20;95814.91;;;6.09;100.00
13029;BME280;6581;42.662;23.402;2023-02-28T03:02:01;95813.09;;;5.92;100.00
13029;BME280;6581;42.662;23.402;2023-02-28T03:04:36;95825.91;;;6.02;100.00
13029;BME280;6581;42.662;23.402;2023-02-28T03:07:36;95839.53;;;6.04;100.00
13029;BME280;6581;42.662;23.402;2023-02-28T03:10:29;95833.03;;;6.02;100.00
13029;BME280;6581;42.662;23.402;2023-02-28T03:16:32;95837.66;;;6.13;100.00
13029;BME280;6581;42.662;23.402;2023-02-28T03:22:42;95852.47;;;6.27;100.00
13029;BME280;6581;42.662;23.402;2023-02-28T03:25:20;95847.50;;;6.25;100.00
13029;BME280;6581;42.662;23.402;2023-02-28T03:27:56;95840.81;;;6.36;100.00
13029;BME280;6581;42.662;23.402;2023-02-28T03:32:00;95863.06;;;6.39;100.00
13029;BME280;6581;42.662;23.402;2023-02-28T03:34:55;95840.38;;;6.26;100.00
13029;BME280;6581;42.662;23.402;2023-02-28T03:38:03;95850.72;;;6.31;100.00
13029;BME280;6581;42.662;23.402;2023-02-28T03:40:39;95866.00;;;6.46;100.00
13029;BME280;6581;42.662;23.402;2023-02-28T03:43:19;95846.84;;;6.28;100.00
13029;BME280;6581;42.662;23.402;2023-02-28T03:45:52;95868.16;;;6.44;100.00
13029;BME280;6581;42.662;23.402;2023-02-28T03:48:42;95858.28;;;6.41;100.00
13029;BME280;6581;42.662;23.402;2023-02-28T03:51:29;95872.31;;;6.53;100.00
13029;BME280;6581;42.662;23.402;2023-02-28T03:54:30;95865.84;;;6.42;100.00
13029;BME280;6581;42.662;23.402;2023-02-28T03:57:02;95879.13;;;6.54;100.00
13029;BME280;6581;42.662;23.402;2023-02-28T03:59:36;95877.06;;;6.60;100.00
13029;BME280;6581;42.662;23.402;2023-02-28T04:02:18;95874.66;;;6.46;100.00
13029;BME280;6581;42.662;23.402;2023-02-28T04:04:46;95877.53;;;6.62;100.00
13029;BME280;6581;42.662;23.402;2023-02-28T04:07:18;95873.38;;;6.52;100.00
13029;BME280;6581;42.662;23.402;2023-02-28T04:09:54;95860.44;;;6.39;100.00
13029;BME280;6581;42.662;23.402;2023-02-28T04:12:32;95866.97;;;6.33;100.00
13029;BME280;6581;42.662;23.402;2023-02-28T04:14:59;95863.38;;;6.37;100.00
13029;BME280;6581;42.662;23.402;2023-02-28T04:17:27;95874.50;;;6.43;100.00
13029;BME280;6581;42.662;23.402;2023-02-28T04:20:05;95857.84;;;6.30;100.00
13029;BME280;6581;42.662;23.402;2023-02-28T04:22:39;95875.47;;;6.38;100.00
13029;BME280;6581;42.662;23.402;2023-02-28T04:25:38;95873.50;;;6.27;100.00
13029;BME280;6581;42.662;23.402;2023-02-28T04:28:36;95873.19;;;6.19;100.00
13029;BME280;6581;42.662;23.402;2023-02-28T04:31:06;95848.50;;;6.03;100.00
13029;BME280;6581;42.662;23.402;2023-02-28T04:33:36;95869.25;;;6.05;100.00
13029;BME280;6581;42.662;23.402;2023-02-28T04:36:09;95858.28;;;5.94;100.00
13029;BME280;6581;42.662;23.402;2023-02-28T04:38:49;95864.72;;;6.05;100.00
13029;BME280;6581;42.662;23.402;2023-02-28T04:41:29;95868.19;;;5.89;100.00
13029;BME280;6581;42.662;23.402;2023-02-28T04:44:02;95880.09;;;5.86;100.00
13029;BME280;6581;42.662;23.402;2023-02-28T04:46:40;95876.19;;;5.84;100.00
13029;BME280;6581;42.662;23.402;2023-02-28T04:49:12;95883.47;;;5.78;100.00
13029;BME280;6581;42.662;23.402;2023-02-28T04:51:48;95897.56;;;5.73;100.00
13029;BME280;6581;42.662;23.402;2023-02-28T04:54:26;95870.66;;;5.59;100.00
13029;BME280;6581;42.662;23.402;2023-02-28T04:57:15;95878.09;;;5.66;100.00
13029;BME280;6581;42.662;23.402;2023-02-28T04:59:44;95893.41;;;5.72;100.00
13029;BME280;6581;42.662;23.402;2023-02-28T05:02:21;95870.66;;;5.59;100.00
13029;BME280;6581;42.662;23.402;2023-02-28T05:04:51;95886.09;;;5.78;100.00
13029;BME280;6581;42.662;23.402;2023-02-28T05:07:27;95881.63;;;5.78;100.00
13029;BME280;6581;42.662;23.402;2023-02-28T05:10:20;95866.34;;;5.72;100.00
13029;BME280;6581;42.662;23.402;2023-02-28T05:12:58;95888.59;;;5.92;100.00
13029;BME280;6581;42.662;23.402;2023-02-28T05:16:05;95868.63;;;5.73;100.00
13029;BME280;6581;42.662;23.402;2023-02-28T05:18:51;95890.59;;;5.69;100.00
13029;BME280;6581;42.662;23.402;2023-02-28T05:21:31;95910.69;;;5.82;100.00
13029;BME280;6581;42.662;23.402;2023-02-28T05:24:09;95893.84;;;5.74;100.00
13029;BME280;6581;42.662;23.402;2023-02-28T05:26:53;95912.72;;;6.02;100.00
13029;BME280;6581;42.662;23.402;2023-02-28T05:29:30;95886.59;;;5.89;100.00
13029;BME280;6581;42.662;23.402;2023-02-28T05:32:20;95920.31;;;5.95;100.00
13029;BME280;6581;42.662;23.402;2023-02-28T05:34:50;95911.31;;;5.96;100.00
13029;BME280;6581;42.662;23.402;2023-02-28T05:37:21;95896.03;;;5.90;100.00
13029;BME280;6581;42.662;23.402;2023-02-28T05:39:51;95933.72;;;6.11;100.00
13029;BME280;6581;42.662;23.402;2023-02-28T05:42:28;95914.09;;;6.08;100.00
13029;BME280;6581;42.662;23.402;2023-02-28T05:45:04;95908.06;;;6.08;100.00
13029;BME280;6581;42.662;23.402;2023-02-28T05:47:39;95926.94;;;6.18;100.00
13029;BME280;6581;42.662;23.402;2023-02-28T05:50:20;95916.69;;;6.26;100.00
13029;BME280;6581;42.662;23.402;2023-02-28T05:52:55;95939.41;;;6.30;100.00
13029;BME280;6581;42.662;23.402;2023-02-28T05:55:35;95938.03;;;6.24;100.00
13029;BME280;6581;42.662;23.402;2023-02-28T05:58:17;95933.53;;;6.24;100.00
13029;BME280;6581;42.662;23.402;2023-02-28T06:00:46;95929.25;;;6.11;100.00
13029;BME280;6581;42.662;23.402;2023-02-28T06:03:26;95938.81;;;6.16;100.00
13029;BME280;6581;42.662;23.402;2023-02-28T06:06:07;95926.16;;;6.18;100.00
13029;BME280;6581;42.662;23.402;2023-02-28T06:08:42;95937.72;;;6.26;100.00
13029;BME280;6581;42.662;23.402;2023-02-28T06:11:15;95922.91;;;6.12;100.00
13029;BME280;6581;42.662;23.402;2023-02-28T06:13:43;95930.28;;;6.36;100.00
13029;BME280;6581;42.662;23.402;2023-02-28T06:16:15;95937.06;;;6.46;100.00
13029;BME280;6581;42.662;23.402;2023-02-28T06:18:53;95933.81;;;6.40;100.00
13029;BME280;6581;42.662;23.402;2023-02-28T06:21:32;95922.41;;;6.28;100.00
13029;BME280;6581;42.662;23.402;2023-02-28T06:24:09;95938.31;;;6.40;100.00
13029;BME280;6581;42.662;23.402;2023-02-28T06:26:44;95926.88;;;6.36;100.00
13029;BME280;6581;42.662;23.402;2023-02-28T06:29:19;95940.63;;;6.33;100.00
13029;BME280;6581;42.662;23.402;2023-02-28T06:31:56;95938.75;;;6.42;100.00
13029;BME280;6581;42.662;23.402;2023-02-28T06:34:42;95931.97;;;6.41;100.00
13029;BME280;6581;42.662;23.402;2023-02-28T06:37:20;95940.91;;;6.48;100.00
13029;BME280;6581;42.662;23.402;2023-02-28T06:40:06;95940.78;;;6.45;100.00
13029;BME280;6581;42.662;23.402;2023-02-28T06:42:45;95927.34;;;6.29;100.00
13029;BME280;6581;42.662;23.402;2023-02-28T06:45:21;95926.25;;;6.30;100.00
13029;BME280;6581;42.662;23.402;2023-02-28T06:47:57;95927.94;;;6.35;100.00
13029;BME280;6581;42.662;23.402;2023-02-28T06:51:01;95932.28;;;6.39;100.00
13029;BME280;6581;42.662;23.402;2023-02-28T06:53:31;95935.84;;;6.35;100.00
13029;BME280;6581;42.662;23.402;2023-02-28T06:56:19;95946.34;;;6.43;100.00
13029;BME280;6581;42.662;23.402;2023-02-28T06:58:50;95944.50;;;6.35;100.00
13029;BME280;6581;42.662;23.402;2023-02-28T07:01:58;95955.63;;;6.49;100.00
13029;BME280;6581;42.662;23.402;2023-02-28T07:04:44;95940.59;;;6.50;100.00
13029;BME280;6581;42.662;23.402;2023-02-28T07:07:20;95954.44;;;6.76;100.00
13029;BME280;6581;42.662;23.402;2023-02-28T07:10:00;95957.69;;;6.82;100.00
13029;BME280;6581;42.662;23.402;2023-02-28T07:12:43;95957.97;;;6.80;100.00
13029;BME280;6581;42.662;23.402;2023-02-28T07:15:30;95937.69;;;6.81;100.00
13029;BME280;6581;42.662;23.402;2023-02-28T07:18:05;95927.16;;;6.81;100.00
13029;BME280;6581;42.662;23.402;2023-02-28T07:20:34;95956.59;;;7.12;100.00
13029;BME280;6581;42.662;23.402;2023-02-28T07:23:09;95956.59;;;7.12;100.00
13029;BME280;6581;42.662;23.402;2023-02-28T07:25:57;95933.28;;;6.93;100.00
13029;BME280;6581;42.662;23.402;2023-02-28T07:28:47;95960.78;;;7.13;100.00
13029;BME280;6581;42.662;23.402;2023-02-28T07:31:34;95956.09;;;7.19;100.00
13029;BME280;6581;42.662;23.402;2023-02-28T07:34:34;95955.28;;;7.27;100.00
13029;BME280;6581;42.662;23.402;2023-02-28T07:37:40;95949.09;;;7.23;100.00
13029;BME280;6581;42.662;23.402;2023-02-28T07:40:39;95946.66;;;7.38;100.00
13029;BME280;6581;42.662;23.402;2023-02-28T07:43:32;95947.97;;;7.53;100.00
13029;BME280;6581;42.662;23.402;2023-02-28T07:46:09;95943.41;;;7.62;100.00
13029;BME280;6581;42.662;23.402;2023-02-28T07:49:19;95946.34;;;7.81;100.00
13029;BME280;6581;42.662;23.402;2023-02-28T07:51:59;95955.09;;;7.94;100.00
13029;BME280;6581;42.662;23.402;2023-02-28T07:54:36;95943.69;;;8.02;100.00
13029;BME280;6581;42.662;23.402;2023-02-28T07:57:14;95932.16;;;8.07;100.00
13029;BME280;6581;42.662;23.402;2023-02-28T07:59:59;95951.19;;;8.33;100.00
13029;BME280;6581;42.662;23.402;2023-02-28T08:02:44;95942.22;;;8.58;100.00
13029;BME280;6581;42.662;23.402;2023-02-28T08:05:14;95938.94;;;8.73;100.00
13029;BME280;6581;42.662;23.402;2023-02-28T08:07:43;95937.94;;;8.90;100.00
13029;BME280;6581;42.662;23.402;2023-02-28T08:10:28;95927.59;;;8.97;100.00
13029;BME280;6581;42.662;23.402;2023-02-28T08:13:16;95947.97;;;9.09;100.00
13029;BME280;6581;42.662;23.402;2023-02-28T08:15:52;95945.84;;;9.26;100.00
13029;BME280;6581;42.662;23.402;2023-02-28T08:18:41;95935.28;;;9.39;100.00
13029;BME280;6581;42.662;23.402;2023-02-28T08:21:13;95937.09;;;9.62;100.00
13029;BME280;6581;42.662;23.402;2023-02-28T08:26:28;95932.72;;;10.10;100.00
13029;BME280;6581;42.662;23.402;2023-02-28T08:28:55;95939.56;;;10.11;100.00
13029;BME280;6581;42.662;23.402;2023-02-28T08:31:22;95940.31;;;10.23;100.00
13029;BME280;6581;42.662;23.402;2023-02-28T08:33:49;95941.81;;;10.52;100.00
13029;BME280;6581;42.662;23.402;2023-02-28T08:36:29;95940.34;;;10.55;100.00
13029;BME280;6581;42.662;23.402;2023-02-28T08:39:04;95940.28;;;10.67;100.00
13029;BME280;6581;42.662;23.402;2023-02-28T08:41:51;95947.47;;;10.66;100.00
13029;BME280;6581;42.662;23.402;2023-02-28T08:44:25;95942.94;;;10.83;100.00
13029;BME280;6581;42.662;23.402;2023-02-28T08:46:57;95930.88;;;10.70;100.00
13029;BME280;6581;42.662;23.402;2023-02-28T08:49:48;95922.09;;;10.81;100.00
13029;BME280;6581;42.662;23.402;2023-02-28T08:52:33;95941.81;;;10.99;100.00
13029;BME280;6581;42.662;23.402;2023-02-28T08:55:09;95930.34;;;11.11;100.00
13029;BME280;6581;42.662;23.402;2023-02-28T08:57:44;95945.47;;;11.26;100.00
13029;BME280;6581;42.662;23.402;2023-02-28T09:00:17;95934.28;;;11.01;100.00
13029;BME280;6581;42.662;23.402;2023-02-28T09:02:50;95961.13;;;11.00;100.00
13029;BME280;6581;42.662;23.402;2023-02-28T09:05:22;95950.28;;;10.89;100.00
13029;BME280;6581;42.662;23.402;2023-02-28T09:07:58;95950.09;;;10.82;100.00
13029;BME280;6581;42.662;23.402;2023-02-28T09:10:32;95939.50;;;10.82;100.00
13029;BME280;6581;42.662;23.402;2023-02-28T09:13:09;95951.91;;;10.62;100.00
13029;BME280;6581;42.662;23.402;2023-02-28T09:15:43;95941.38;;;10.50;100.00
13029;BME280;6581;42.662;23.402;2023-02-28T09:18:15;95941.03;;;10.52;100.00
13029;BME280;6581;42.662;23.402;2023-02-28T09:21:04;95939.34;;;10.44;100.00
13029;BME280;6581;42.662;23.402;2023-02-28T09:23:33;95938.16;;;10.57;100.00
13029;BME280;6581;42.662;23.402;2023-02-28T09:26:05;95954.91;;;10.61;100.00
13029;BME280;6581;42.662;23.402;2023-02-28T09:29:15;95949.19;;;10.75;100.00
13029;BME280;6581;42.662;23.402;2023-02-28T09:31:43;95943.44;;;10.88;100.00
13029;BME280;6581;42.662;23.402;2023-02-28T09:34:11;95952.59;;;10.91;100.00
13029;BME280;6581;42.662;23.402;2023-02-28T09:36:39;95949.78;;;10.84;100.00
13029;BME280;6581;42.662;23.402;2023-02-28T09:39:17;95950.72;;;11.07;100.00
13029;BME280;6581;42.662;23.402;2023-02-28T09:41:50;95946.56;;;11.25;100.00
13029;BME280;6581;42.662;23.402;2023-02-28T09:44:33;95928.72;;;11.22;100.00
13029;BME280;6581;42.662;23.402;2023-02-28T09:47:11;95954.16;;;11.42;100.00
13029;BME280;6581;42.662;23.402;2023-02-28T09:50:19;95948.88;;;11.62;100.00
13029;BME280;6581;42.662;23.402;2023-02-28T09:52:54;95930.13;;;11.35;100.00
13029;BME280;6581;42.662;23.402;2023-02-28T09:55:29;95938.66;;;11.44;100.00
13029;BME280;6581;42.662;23.402;2023-02-28T09:58:01;95941.31;;;11.44;100.00
13029;BME280;6581;42.662;23.402;2023-02-28T10:00:45;95931.41;;;11.61;100.00
13029;BME280;6581;42.662;23.402;2023-02-28T10:03:34;95946.97;;;11.78;100.00
13029;BME280;6581;42.662;23.402;2023-02-28T10:06:48;95927.09;;;11.72;100.00
13029;BME280;6581;42.662;23.402;2023-02-28T10:09:30;95930.00;;;11.82;100.00
13029;BME280;6581;42.662;23.402;2023-02-28T10:12:05;95930.47;;;11.88;100.00
13029;BME280;6581;42.662;23.402;2023-02-28T10:14:49;95912.66;;;11.88;100.00
13029;BME280;6581;42.662;23.402;2023-02-28T10:17:38;95919.47;;;12.05;100.00
13029;BME280;6581;42.662;23.402;2023-02-28T10:20:19;95916.09;;;12.08;100.00
13029;BME280;6581;42.662;23.402;2023-02-28T10:22:57;95913.53;;;12.34;100.00
13029;BME280;6581;42.662;23.402;2023-02-28T10:25:37;95909.00;;;12.16;100.00
13029;BME280;6581;42.662;23.402;2023-02-28T10:28:10;95913.47;;;12.31;100.00
13029;BME280;6581;42.662;23.402;2023-02-28T10:30:44;95919.53;;;12.51;99.22
13029;BME280;6581;42.662;23.402;2023-02-28T10:33:38;95917.25;;;12.53;99.92
13029;BME280;6581;42.662;23.402;2023-02-28T10:36:14;95906.88;;;12.67;100.00
13029;BME280;6581;42.662;23.402;2023-02-28T10:38:44;95900.84;;;12.70;100.00
13029;BME280;6581;42.662;23.402;2023-02-28T10:41:14;95889.56;;;12.76;98.37
13029;BME280;6581;42.662;23.402;2023-02-28T10:43:43;95888.41;;;12.74;97.61
13029;BME280;6581;42.662;23.402;2023-02-28T10:46:18;95885.75;;;12.74;97.53
13029;BME280;6581;42.662;23.402;2023-02-28T10:49:02;95884.13;;;12.92;96.58
13029;BME280;6581;42.662;23.402;2023-02-28T10:51:38;95894.81;;;12.96;97.41
13029;BME280;6581;42.662;23.402;2023-02-28T10:54:15;95895.66;;;12.77;96.44
13029;BME280;6581;42.662;23.402;2023-02-28T10:59:35;95869.25;;;12.65;95.75
13029;BME280;6581;42.662;23.402;2023-02-28T11:02:31;95879.75;;;12.80;96.17
13029;BME280;6581;42.662;23.402;2023-02-28T11:05:23;95869.28;;;12.91;95.07
13029;BME280;6581;42.662;23.402;2023-02-28T11:07:54;95855.50;;;12.85;95.48
13029;BME280;6581;42.662;23.402;2023-02-28T11:10:30;95870.16;;;12.99;95.59
13029;BME280;6581;42.662;23.402;2023-02-28T11:13:08;95865.63;;;13.03;96.10
13029;BME280;6581;42.662;23.402;2023-02-28T11:15:52;95861.50;;;13.05;94.99
13029;BME280;6581;42.662;23.402;2023-02-28T11:18:49;95862.22;;;13.02;96.23
13029;BME280;6581;42.662;23.402;2023-02-28T11:21:26;95861.09;;;13.03;96.30
13029;BME280;6581;42.662;23.402;2023-02-28T11:26:50;95839.47;;;12.78;95.11
13029;BME280;6581;42.662;23.402;2023-02-28T11:29:23;95849.13;;;12.90;94.72
13029;BME280;6581;42.662;23.402;2023-02-28T11:32:18;95858.66;;;12.91;95.94
13029;BME280;6581;42.662;23.402;2023-02-28T11:35:00;95865.09;;;12.90;94.91
13029;BME280;6581;42.662;23.402;2023-02-28T11:37:31;95860.53;;;12.91;94.50
13029;BME280;6581;42.662;23.402;2023-02-28T11:40:13;95844.13;;;12.85;95.10
13029;BME280;6581;42.662;23.402;2023-02-28T11:42:55;95847.63;;;12.93;93.96
13029;BME280;6581;42.662;23.402;2023-02-28T11:45:40;95842.31;;;12.93;92.88
13029;BME280;6581;42.662;23.402;2023-02-28T11:48:28;95844.78;;;12.78;94.48
13029;BME280;6581;42.662;23.402;2023-02-28T11:51:11;95842.81;;;13.02;93.67
13029;BME280;6581;42.662;23.402;2023-02-28T11:54:16;95840.06;;;13.21;93.28
13029;BME280;6581;42.662;23.402;2023-02-28T11:56:57;95846.94;;;13.22;92.83
13029;BME280;6581;42.662;23.402;2023-02-28T12:02:24;95851.84;;;12.94;92.81
13029;BME280;6581;42.662;23.402;2023-02-28T12:07:56;95830.97;;;12.69;93.64
13029;BME280;6581;42.662;23.402;2023-02-28T12:10:36;95848.06;;;12.95;93.49
13029;BME280;6581;42.662;23.402;2023-02-28T12:13:17;95835.78;;;12.86;93.15
13029;BME280;6581;42.662;23.402;2023-02-28T12:16:00;95852.53;;;13.13;92.99
13029;BME280;6581;42.662;23.402;2023-02-28T12:18:53;95838.38;;;13.09;92.11
13029;BME280;6581;42.662;23.402;2023-02-28T12:21:38;95848.31;;;13.12;91.18
13029;BME280;6581;42.662;23.402;2023-02-28T12:24:28;95835.44;;;13.14;91.54
13029;BME280;6581;42.662;23.402;2023-02-28T12:27:02;95841.03;;;13.09;91.65
13029;BME280;6581;42.662;23.402;2023-02-28T12:29:40;95828.78;;;13.01;90.55
13029;BME280;6581;42.662;23.402;2023-02-28T12:32:19;95839.22;;;13.13;90.84
13029;BME280;6581;42.662;23.402;2023-02-28T12:34:56;95830.47;;;13.13;90.35
13029;BME280;6581;42.662;23.402;2023-02-28T12:37:36;95825.28;;;12.97;90.95
13029;BME280;6581;42.662;23.402;2023-02-28T12:40:12;95826.97;;;13.09;89.59
13029;BME280;6581;42.662;23.402;2023-02-28T12:42:46;95843.50;;;13.21;89.57
13029;BME280;6581;42.662;23.402;2023-02-28T12:45:23;95823.34;;;13.20;90.88
13029;BME280;6581;42.662;23.402;2023-02-28T12:48:07;95834.50;;;13.29;89.95
13029;BME280;6581;42.662;23.402;2023-02-28T12:50:43;95827.84;;;13.43;87.60
13029;BME280;6581;42.662;23.402;2023-02-28T12:53:22;95815.22;;;13.40;87.24
13029;BME280;6581;42.662;23.402;2023-02-28T12:56:08;95830.97;;;13.52;87.77
13029;BME280;6581;42.662;23.402;2023-02-28T12:58:42;95810.88;;;13.58;87.19
13029;BME280;6581;42.662;23.402;2023-02-28T13:01:31;95820.16;;;13.71;87.02
13029;BME280;6581;42.662;23.402;2023-02-28T13:10:39;95823.22;;;13.40;85.43
13029;BME280;6581;42.662;23.402;2023-02-28T13:13:15;95826.50;;;13.29;86.58
13029;BME280;6581;42.662;23.402;2023-02-28T13:16:03;95834.72;;;13.17;87.31
13029;BME280;6581;42.662;23.402;2023-02-28T13:19:10;95820.41;;;12.73;87.97
13029;BME280;6581;42.662;23.402;2023-02-28T13:21:43;95814.97;;;12.66;88.21
13029;BME280;6581;42.662;23.402;2023-02-28T13:24:11;95815.91;;;12.77;88.89
13029;BME280;6581;42.662;23.402;2023-02-28T13:27:36;95808.00;;;12.84;88.39
13029;BME280;6581;42.662;23.402;2023-02-28T13:33:22;95828.59;;;12.87;87.88
13029;BME280;6581;42.662;23.402;2023-02-28T13:36:05;95824.94;;;12.72;88.63
13029;BME280;6581;42.662;23.402;2023-02-28T13:38:36;95821.41;;;12.65;90.30
13029;BME280;6581;42.662;23.402;2023-02-28T13:44:09;95817.81;;;12.54;90.43
13029;BME280;6581;42.662;23.402;2023-02-28T13:52:44;95812.91;;;12.33;88.83
13029;BME280;6581;42.662;23.402;2023-02-28T13:55:27;95810.88;;;12.23;89.26
13029;BME280;6581;42.662;23.402;2023-02-28T13:58:19;95799.78;;;12.17;90.69
13029;BME280;6581;42.662;23.402;2023-02-28T14:01:04;95801.56;;;12.32;90.50
13029;BME280;6581;42.662;23.402;2023-02-28T14:03:55;95815.13;;;12.27;90.28
13029;BME280;6581;42.662;23.402;2023-02-28T14:06:29;95822.28;;;12.23;90.36
13029;BME280;6581;42.662;23.402;2023-02-28T14:09:05;95812.09;;;12.06;90.98
13029;BME280;6581;42.662;23.402;2023-02-28T14:11:39;95816.63;;;11.83;92.01
13029;BME280;6581;42.662;23.402;2023-02-28T14:14:08;95822.28;;;11.81;92.82
13029;BME280;6581;42.662;23.402;2023-02-28T14:16:40;95798.47;;;11.66;92.91
13029;BME280;6581;42.662;23.402;2023-02-28T14:19:26;95806.72;;;11.80;93.75
13029;BME280;6581;42.662;23.402;2023-02-28T14:22:18;95824.13;;;11.77;93.79
13029;BME280;6581;42.662;23.402;2023-02-28T14:25:12;95823.19;;;11.70;94.81
13029;BME280;6581;42.662;23.402;2023-02-28T14:27:57;95814.56;;;11.73;95.07
13029;BME280;6581;42.662;23.402;2023-02-28T14:30:43;95812.94;;;11.68;95.72
13029;BME280;6581;42.662;23.402;2023-02-28T14:33:38;95824.88;;;11.59;95.94
13029;BME280;6581;42.662;23.402;2023-02-28T14:36:17;95834.09;;;11.45;96.97
13029;BME280;6581;42.662;23.402;2023-02-28T14:38:49;95824.22;;;11.46;97.24
13029;BME280;6581;42.662;23.402;2023-02-28T14:41:23;95802.38;;;11.33;96.23
13029;BME280;6581;42.662;23.402;2023-02-28T14:43:54;95819.00;;;11.49;96.62
13029;BME280;6581;42.662;23.402;2023-02-28T14:46:34;95816.91;;;11.59;96.38
13029;BME280;6581;42.662;23.402;2023-02-28T14:49:03;95817.13;;;11.50;96.50
13029;BME280;6581;42.662;23.402;2023-02-28T14:51:31;95821.66;;;11.49;97.39
13029;BME280;6581;42.662;23.402;2023-02-28T14:54:01;95824.22;;;11.46;97.39
13029;BME280;6581;42.662;23.402;2023-02-28T14:56:35;95822.34;;;11.46;97.47
13029;BME280;6581;42.662;23.402;2023-02-28T14:59:04;95827.09;;;11.56;96.93